Time;durP1;ratioP1;P1;durP2;ratioP2;P2;SDS_P1;SDS_P2;PMS_P1;PMS_P2;Temp;Humidity;BMP_temperature;BMP_pressure;BME280_temperature;BME280_humidity;BME280_pressure;Samples;Min_cycle;Max_cycle;Signal;HPM_P1;HPM_P2
2023/07/02 00:00:59;;;;;;;11.32;4.28;;;20.40;99.90;;;;;;5092396;28;20035;-63
2023/07/02 00:03:25;;;;;;;9.68;3.88;;;20.40;99.90;;;;;;5092069;28;20047;-63
2023/07/02 00:05:56;;;;;;;12.63;4.40;;;20.30;99.90;;;;;;5092074;28;20562;-62
2023/07/02 00:08:22;;;;;;;10.38;4.25;;;20.20;99.90;;;;;;5092333;28;20409;-63
2023/07/02 00:10:47;;;;;;;10.68;4.63;;;20.10;99.90;;;;;;5092681;28;20016;-62
2023/07/02 00:13:15;;;;;;;10.43;4.68;;;20.10;99.90;;;;;;5092303;28;20479;-62
2023/07/02 00:15:41;;;;;;;16.00;5.75;;;20.00;99.90;;;;;;5092139;28;20077;-62
2023/07/02 00:18:07;;;;;;;11.70;5.25;;;20.00;99.90;;;;;;5091895;28;20106;-63
2023/07/02 00:20:37;;;;;;;11.98;5.00;;;20.00;99.90;;;;;;5091841;28;20123;-63
2023/07/02 00:23:04;;;;;;;14.32;5.63;;;20.00;99.90;;;;;;5092141;28;20055;-63
2023/07/02 00:25:30;;;;;;;9.90;5.00;;;19.90;99.90;;;;;;5091848;28;20043;-62
2023/07/02 00:27:55;;;;;;;9.02;3.65;;;19.90;99.90;;;;;;5091889;28;20024;-61
2023/07/02 00:30:21;;;;;;;7.78;3.20;;;19.90;99.90;;;;;;5092243;28;20085;-63
2023/07/02 00:32:46;;;;;;;4.85;2.67;;;19.90;99.90;;;;;;5091824;28;20020;-63
2023/07/02 00:35:12;;;;;;;8.02;2.80;;;19.90;99.90;;;;;;5091348;28;20106;-63
2023/07/02 00:37:38;;;;;;;7.43;3.58;;;19.90;99.90;;;;;;5092070;28;20047;-63
2023/07/02 00:40:04;;;;;;;6.13;3.03;;;19.80;99.90;;;;;;5091751;28;20023;-64
2023/07/02 00:42:30;;;;;;;4.45;2.70;;;19.80;99.90;;;;;;5091701;28;20410;-65
2023/07/02 00:45:02;;;;;;;6.32;2.60;;;20.00;99.90;;;;;;5091326;28;20099;-63
2023/07/02 00:47:35;;;;;;;4.10;2.50;;;20.20;99.90;;;;;;5091505;28;20028;-64
2023/07/02 00:50:02;;;;;;;4.82;2.22;;;20.30;99.90;;;;;;5091564;28;20028;-63
2023/07/02 00:52:28;;;;;;;6.85;2.20;;;20.50;99.90;;;;;;5091664;28;20023;-63
2023/07/02 00:54:54;;;;;;;2.50;1.55;;;20.50;99.90;;;;;;5091641;28;20036;-64
2023/07/02 00:57:20;;;;;;;1.77;1.00;;;20.60;99.90;;;;;;5091558;28;20107;-64
2023/07/02 00:59:46;;;;;;;5.00;0.80;;;20.70;99.90;;;;;;5091528;28;20031;-64
2023/07/02 01:02:12;;;;;;;1.65;0.70;;;20.60;99.90;;;;;;5091249;28;20085;-65
2023/07/02 01:04:39;;;;;;;1.13;0.70;;;20.60;99.90;;;;;;5091254;28;20048;-64
2023/07/02 01:07:09;;;;;;;2.45;0.82;;;20.70;99.90;;;;;;5091513;28;20444;-64
2023/07/02 01:09:35;;;;;;;1.75;1.00;;;20.80;99.90;;;;;;5091040;28;20153;-65
2023/07/02 01:12:05;;;;;;;2.92;1.10;;;20.70;99.90;;;;;;5091291;28;20039;-65
2023/07/02 01:14:38;;;;;;;2.70;1.25;;;20.60;99.90;;;;;;5091331;28;20056;-65
2023/07/02 01:17:06;;;;;;;3.25;1.52;;;20.60;99.90;;;;;;5091263;28;20150;-65
2023/07/02 01:19:51;;;;;;;2.40;1.60;;;20.40;99.90;;;;;;5091281;28;20043;-64
2023/07/02 01:22:18;;;;;;;4.32;1.83;;;20.30;99.90;;;;;;5091001;28;20032;-64
2023/07/02 01:24:46;;;;;;;4.55;1.75;;;20.10;99.90;;;;;;5091611;28;20522;-64
2023/07/02 01:27:13;;;;;;;5.68;2.10;;;20.10;99.90;;;;;;5091140;28;20058;-64
2023/07/02 01:29:39;;;;;;;4.72;2.30;;;20.00;99.90;;;;;;5091327;28;20103;-64
2023/07/02 01:32:05;;;;;;;4.05;2.03;;;19.90;99.90;;;;;;5091173;28;20024;-64
2023/07/02 01:34:30;;;;;;;5.25;2.53;;;19.90;99.90;;;;;;5091268;28;20398;-64
2023/07/02 01:36:56;;;;;;;3.85;2.03;;;19.90;99.90;;;;;;5091158;28;20027;-64
2023/07/02 01:39:22;;;;;;;4.70;1.83;;;19.90;99.90;;;;;;5091039;28;20032;-64
2023/07/02 01:41:56;;;;;;;5.47;2.60;;;20.00;99.90;;;;;;5091411;28;20451;-63
2023/07/02 01:44:22;;;;;;;5.50;2.10;;;20.00;99.90;;;;;;5091435;28;20032;-65
2023/07/02 01:46:48;;;;;;;5.60;2.22;;;20.00;99.90;;;;;;5090698;28;20555;-64
2023/07/02 01:49:18;;;;;;;6.80;2.28;;;20.00;99.90;;;;;;5090863;28;20036;-63
2023/07/02 01:51:55;;;;;;;4.45;1.90;;;20.00;99.90;;;;;;5090897;28;20389;-63
2023/07/02 01:54:23;;;;;;;4.32;2.00;;;19.90;99.90;;;;;;5091416;28;20032;-65
2023/07/02 01:56:49;;;;;;;6.30;2.47;;;19.90;99.90;;;;;;5091801;28;20115;-64
2023/07/02 01:59:15;;;;;;;6.88;2.40;;;19.90;99.90;;;;;;5094861;28;20104;-65
2023/07/02 02:01:41;;;;;;;5.30;2.15;;;20.00;99.90;;;;;;5094784;28;20028;-64
2023/07/02 02:04:07;;;;;;;3.70;2.17;;;20.20;99.90;;;;;;5094784;28;20414;-64
2023/07/02 02:06:33;;;;;;;4.15;1.90;;;20.30;99.90;;;;;;5094531;28;20576;-63
2023/07/02 02:08:59;;;;;;;5.63;2.22;;;20.40;99.90;;;;;;5093464;28;20050;-65
2023/07/02 02:11:25;;;;;;;3.78;1.85;;;20.40;99.90;;;;;;5094930;28;20103;-65
2023/07/02 02:13:51;;;;;;;3.72;2.00;;;20.40;99.90;;;;;;5094572;28;20099;-65
2023/07/02 02:16:17;;;;;;;3.97;2.05;;;20.40;99.90;;;;;;5094216;28;20482;-65
2023/07/02 02:18:43;;;;;;;3.95;1.98;;;20.50;99.90;;;;;;5094749;28;20016;-65
2023/07/02 02:21:08;;;;;;;4.32;2.00;;;20.60;99.90;;;;;;5094479;28;20028;-65
2023/07/02 02:23:34;;;;;;;3.92;1.73;;;20.60;99.90;;;;;;5094161;28;20056;-65
2023/07/02 02:26:00;;;;;;;3.03;1.80;;;20.60;99.90;;;;;;5094337;28;20394;-64
2023/07/02 02:28:25;;;;;;;4.13;2.13;;;20.60;99.90;;;;;;5094153;28;20024;-64
2023/07/02 02:30:51;;;;;;;4.35;2.00;;;20.60;99.90;;;;;;5093967;28;20085;-66
2023/07/02 02:33:17;;;;;;;4.75;1.98;;;20.40;99.90;;;;;;5094237;28;20081;-65
2023/07/02 02:35:42;;;;;;;5.32;2.22;;;20.20;99.90;;;;;;5094368;28;20106;-65
2023/07/02 02:38:08;;;;;;;6.88;2.30;;;20.10;99.90;;;;;;5094149;28;20027;-65
2023/07/02 02:40:34;;;;;;;5.20;2.20;;;20.00;99.90;;;;;;5094027;28;20505;-65
2023/07/02 02:43:00;;;;;;;7.70;2.78;;;19.90;99.90;;;;;;5093817;28;20115;-65
2023/07/02 02:45:26;;;;;;;4.05;2.20;;;19.90;99.90;;;;;;5094010;28;20142;-65
2023/07/02 02:47:52;;;;;;;5.60;2.20;;;19.80;99.90;;;;;;5093931;28;20375;-65
2023/07/02 02:50:17;;;;;;;6.80;2.63;;;19.80;99.90;;;;;;5093841;28;20089;-65
2023/07/02 02:52:43;;;;;;;4.53;2.22;;;19.80;99.90;;;;;;5094100;28;20020;-66
2023/07/02 02:55:13;;;;;;;5.75;2.20;;;19.80;99.90;;;;;;5093595;28;20024;-65
2023/07/02 02:57:39;;;;;;;8.20;2.75;;;19.70;99.90;;;;;;5093715;28;20043;-65
2023/07/02 03:00:06;;;;;;;5.32;2.30;;;19.70;99.90;;;;;;5093421;28;20109;-65
2023/07/02 03:02:32;;;;;;;6.55;2.63;;;19.70;99.90;;;;;;5093772;28;20048;-65
2023/07/02 03:05:02;;;;;;;5.80;2.17;;;19.70;99.90;;;;;;5093678;28;20398;-66
2023/07/02 03:07:31;;;;;;;5.32;2.35;;;19.60;99.90;;;;;;5093018;28;20114;-66
2023/07/02 03:09:57;;;;;;;4.03;2.10;;;19.70;99.90;;;;;;5093854;28;20565;-66
2023/07/02 03:12:23;;;;;;;5.20;2.63;;;19.60;99.90;;;;;;5093425;28;20034;-66
2023/07/02 03:14:52;;;;;;;6.60;2.50;;;19.70;99.90;;;;;;5092913;28;20032;-65
2023/07/02 03:17:19;;;;;;;5.68;2.60;;;19.90;99.90;;;;;;5093488;28;20103;-66
2023/07/02 03:19:45;;;;;;;7.47;2.47;;;20.00;99.90;;;;;;5093440;28;20107;-65
2023/07/02 03:22:10;;;;;;;4.90;2.42;;;20.10;99.90;;;;;;5093276;28;20122;-66
2023/07/02 03:24:36;;;;;;;6.03;2.55;;;20.20;99.90;;;;;;5093242;28;20028;-65
2023/07/02 03:27:02;;;;;;;5.03;2.47;;;20.30;99.90;;;;;;5092987;28;20028;-66
2023/07/02 03:29:28;;;;;;;4.88;2.28;;;20.30;99.90;;;;;;5092874;28;20031;-66
2023/07/02 03:31:53;;;;;;;6.90;2.60;;;20.30;99.90;;;;;;5093298;28;20819;-66
2023/07/02 03:34:19;;;;;;;7.90;2.78;;;20.30;99.90;;;;;;5093100;28;20031;-66
2023/07/02 03:36:45;;;;;;;5.85;2.38;;;20.40;99.90;;;;;;5092896;28;20542;-65
2023/07/02 03:39:10;;;;;;;5.88;2.65;;;20.40;99.90;;;;;;5092772;28;20115;-67
2023/07/02 03:41:36;;;;;;;7.57;2.70;;;20.30;99.90;;;;;;5093075;28;20063;-66
2023/07/02 03:44:02;;;;;;;5.60;2.60;;;20.30;99.90;;;;;;5092381;28;20047;-67
2023/07/02 03:46:28;;;;;;;5.18;2.55;;;20.30;99.90;;;;;;5092782;28;20016;-66
2023/07/02 03:48:53;;;;;;;7.22;3.17;;;20.20;99.90;;;;;;5093036;28;20099;-67
2023/07/02 03:51:19;;;;;;;8.02;3.00;;;20.10;99.90;;;;;;5092431;28;20016;-66
2023/07/02 03:53:44;;;;;;;9.52;3.10;;;19.90;99.90;;;;;;5093058;28;20031;-66
2023/07/02 03:56:10;;;;;;;7.63;2.92;;;19.90;99.90;;;;;;5092471;28;20023;-66
2023/07/02 03:58:36;;;;;;;8.75;3.30;;;19.80;99.90;;;;;;5092233;28;20077;-66
2023/07/02 04:01:01;;;;;;;7.78;3.13;;;19.70;99.90;;;;;;5092622;28;20050;-67
2023/07/02 04:03:27;;;;;;;6.82;3.00;;;19.70;99.90;;;;;;5092511;28;20051;-66
2023/07/02 04:05:53;;;;;;;6.50;3.33;;;19.70;99.90;;;;;;5091071;28;20154;-67
2023/07/02 04:08:20;;;;;;;8.15;3.45;;;19.70;99.90;;;;;;5092570;28;20073;-67
2023/07/02 04:10:46;;;;;;;6.38;2.92;;;19.60;99.90;;;;;;5092625;28;20020;-66
2023/07/02 04:13:12;;;;;;;5.85;2.95;;;19.60;99.90;;;;;;5091987;28;20375;-66
2023/07/02 04:15:38;;;;;;;6.88;3.03;;;19.60;99.90;;;;;;5092243;28;20028;-66
2023/07/02 04:18:04;;;;;;;7.50;3.22;;;19.50;99.90;;;;;;5092152;28;20039;-67
2023/07/02 04:20:29;;;;;;;6.53;2.90;;;19.60;99.90;;;;;;5091469;28;20103;-67
2023/07/02 04:22:55;;;;;;;9.38;3.55;;;19.50;99.90;;;;;;5092131;28;20422;-66
2023/07/02 04:25:21;;;;;;;8.77;3.45;;;19.50;99.90;;;;;;5091808;28;20497;-67
2023/07/02 04:27:47;;;;;;;6.95;3.15;;;19.50;99.90;;;;;;5091669;28;20032;-67
2023/07/02 04:30:14;;;;;;;9.05;4.03;;;19.50;99.90;;;;;;5091982;28;20443;-67
2023/07/02 04:32:40;;;;;;;6.88;3.10;;;19.70;99.90;;;;;;5092274;28;20486;-66
2023/07/02 04:35:07;;;;;;;9.75;3.53;;;19.90;99.90;;;;;;5091884;28;20508;-67
2023/07/02 04:37:32;;;;;;;6.68;3.17;;;19.90;99.90;;;;;;5091735;28;20056;-67
2023/07/02 04:39:58;;;;;;;7.30;3.10;;;20.00;99.90;;;;;;5091780;28;20372;-66
2023/07/02 04:42:37;;;;;;;6.65;2.80;;;20.10;99.90;;;;;;5091401;28;20085;-66
2023/07/02 04:45:04;;;;;;;6.18;2.80;;;20.20;99.90;;;;;;5091699;28;20753;-66
2023/07/02 04:47:30;;;;;;;7.78;2.90;;;20.20;99.90;;;;;;5091950;28;20028;-66
2023/07/02 04:49:56;;;;;;;7.35;2.95;;;20.20;99.90;;;;;;5091566;28;20031;-66
2023/07/02 04:52:21;;;;;;;6.97;3.10;;;20.20;99.90;;;;;;5091526;28;20406;-65
2023/07/02 04:54:47;;;;;;;5.82;2.72;;;20.20;99.90;;;;;;5091229;28;20062;-66
2023/07/02 04:57:15;;;;;;;8.25;2.80;;;20.30;99.90;;;;;;5091572;28;20035;-67
2023/07/02 04:59:42;;;;;;;8.57;2.83;;;20.30;99.90;;;;;;5091502;28;20430;-66
2023/07/02 05:02:08;;;;;;;8.80;3.28;;;20.30;99.90;;;;;;5091431;28;20020;-66
2023/07/02 05:04:35;;;;;;;8.75;2.90;;;20.10;99.90;;;;;;5091435;28;20085;-67
2023/07/02 05:07:00;;;;;;;9.55;3.45;;;20.00;99.90;;;;;;5091243;28;20631;-66
2023/07/02 05:09:26;;;;;;;6.78;3.25;;;19.90;99.90;;;;;;5091455;28;20032;-67
2023/07/02 05:11:52;;;;;;;6.35;3.22;;;19.80;99.90;;;;;;5091268;28;20024;-66
2023/07/02 05:14:17;;;;;;;5.20;3.08;;;19.80;99.90;;;;;;5091723;28;20106;-66
2023/07/02 05:16:43;;;;;;;8.13;3.58;;;19.80;99.90;;;;;;5091188;28;20016;-65
2023/07/02 05:19:09;;;;;;;7.13;3.63;;;19.70;99.90;;;;;;5091198;28;20036;-66
2023/07/02 05:21:34;;;;;;;6.20;3.55;;;19.70;99.90;;;;;;5091080;28;20546;-65
2023/07/02 05:24:00;;;;;;;6.65;3.15;;;19.70;99.90;;;;;;5090745;28;20048;-67
2023/07/02 05:26:26;;;;;;;8.80;3.53;;;19.70;99.90;;;;;;5091227;28;20020;-67
2023/07/02 05:28:53;;;;;;;8.35;3.58;;;19.70;99.90;;;;;;5091209;28;20043;-66
2023/07/02 05:31:19;;;;;;;8.13;3.53;;;19.70;99.90;;;;;;5093049;28;20020;-67
2023/07/02 05:33:45;;;;;;;10.95;4.20;;;19.70;99.90;;;;;;5095473;28;20039;-66
2023/07/02 05:36:11;;;;;;;8.95;4.22;;;19.70;99.90;;;;;;5095136;28;20020;-66
2023/07/02 05:38:36;;;;;;;10.43;4.25;;;19.70;99.90;;;;;;5094900;28;20028;-66
2023/07/02 05:41:03;;;;;;;12.60;4.30;;;19.70;99.90;;;;;;5095621;28;20214;-66
2023/07/02 05:43:29;;;;;;;8.50;3.92;;;19.70;99.90;;;;;;5094629;28;20028;-66
2023/07/02 05:45:57;;;;;;;7.38;3.40;;;19.80;99.90;;;;;;5095085;28;20028;-67
2023/07/02 05:48:23;;;;;;;4.68;2.70;;;19.90;99.90;;;;;;5095439;28;20032;-66
2023/07/02 05:50:48;;;;;;;6.88;3.00;;;20.30;99.90;;;;;;5094963;28;20547;-66
2023/07/02 05:53:14;;;;;;;7.40;2.58;;;20.30;99.90;;;;;;5094668;28;20028;-66
2023/07/02 05:55:41;;;;;;;6.07;2.78;;;20.50;99.90;;;;;;5094543;28;20110;-65
2023/07/02 05:58:07;;;;;;;3.35;2.00;;;20.60;99.90;;;;;;5095173;28;20841;-66
2023/07/02 06:00:32;;;;;;;5.50;2.47;;;20.70;99.90;;;;;;5094553;28;20028;-66
2023/07/02 06:02:58;;;;;;;5.80;2.65;;;20.70;99.90;;;;;;5095033;28;20468;-64
2023/07/02 06:05:24;;;;;;;6.78;2.67;;;20.80;99.90;;;;;;5094662;28;20051;-66
2023/07/02 06:07:49;;;;;;;7.93;3.05;;;20.80;99.90;;;;;;5094581;28;20020;-66
2023/07/02 06:10:16;;;;;;;5.53;2.67;;;20.90;99.90;;;;;;5094674;28;20027;-65
2023/07/02 06:12:43;;;;;;;6.55;2.90;;;20.80;99.90;;;;;;5094805;28;20387;-66
2023/07/02 06:15:09;;;;;;;6.72;3.03;;;20.70;99.90;;;;;;5094614;28;20020;-66
2023/07/02 06:17:35;;;;;;;8.55;3.33;;;20.70;99.90;;;;;;5094297;28;20044;-67
2023/07/02 06:20:04;;;;;;;6.70;3.20;;;20.50;99.90;;;;;;5094358;28;20018;-67
2023/07/02 06:22:30;;;;;;;7.68;3.15;;;20.40;99.90;;;;;;5093928;28;20052;-66
2023/07/02 06:24:56;;;;;;;8.20;3.20;;;20.30;99.90;;;;;;5094359;28;20416;-67
2023/07/02 06:27:22;;;;;;;6.88;3.10;;;20.20;99.90;;;;;;5094288;28;20028;-64
2023/07/02 06:29:47;;;;;;;6.18;3.30;;;20.20;99.90;;;;;;5094459;28;20082;-64
2023/07/02 06:32:13;;;;;;;6.47;3.33;;;20.20;99.90;;;;;;5094233;28;20024;-64
2023/07/02 06:34:39;;;;;;;5.78;3.10;;;20.20;99.90;;;;;;5094316;28;20042;-64
2023/07/02 06:37:05;;;;;;;6.15;3.33;;;20.10;99.90;;;;;;5093730;28;20083;-64
2023/07/02 06:39:31;;;;;;;6.55;3.50;;;20.10;99.90;;;;;;5094101;28;20377;-64
2023/07/02 06:41:56;;;;;;;6.75;3.53;;;20.20;99.90;;;;;;5093861;28;20025;-64
2023/07/02 06:44:22;;;;;;;6.95;3.17;;;20.20;99.90;;;;;;5093683;28;20119;-63
2023/07/02 06:46:48;;;;;;;5.53;3.20;;;20.10;99.90;;;;;;5093815;28;20074;-65
2023/07/02 06:49:14;;;;;;;6.82;3.17;;;20.10;99.90;;;;;;5094321;28;20024;-65
2023/07/02 06:51:39;;;;;;;6.18;2.95;;;20.10;99.90;;;;;;5093595;28;20028;-64
2023/07/02 06:54:05;;;;;;;5.63;2.85;;;20.10;99.90;;;;;;5093849;28;20027;-63
2023/07/02 06:56:33;;;;;;;7.03;3.13;;;20.10;99.90;;;;;;5093808;28;20153;-64
2023/07/02 06:58:59;;;;;;;6.43;2.83;;;20.10;99.90;;;;;;5093880;28;20031;-64
2023/07/02 07:01:24;;;;;;;5.00;2.80;;;20.10;99.90;;;;;;5092373;28;20398;-64
2023/07/02 07:03:50;;;;;;;6.05;2.85;;;20.30;99.90;;;;;;5093401;28;20512;-64
2023/07/02 07:06:15;;;;;;;5.63;2.83;;;20.40;99.90;;;;;;5093289;28;20020;-64
2023/07/02 07:08:41;;;;;;;4.68;2.65;;;20.60;99.90;;;;;;5093813;28;20024;-64
2023/07/02 07:11:07;;;;;;;4.25;2.30;;;20.70;99.90;;;;;;5093492;28;20063;-64
2023/07/02 07:13:32;;;;;;;4.90;2.40;;;20.90;99.90;;;;;;5093403;28;20025;-65
2023/07/02 07:15:58;;;;;;;5.43;2.30;;;21.00;99.90;;;;;;5093290;28;20393;-64
2023/07/02 07:18:24;;;;;;;7.13;2.63;;;21.00;99.90;;;;;;5093069;28;20095;-64
2023/07/02 07:20:49;;;;;;;5.80;2.53;;;21.10;99.90;;;;;;5092985;28;20066;-65
2023/07/02 07:23:16;;;;;;;5.05;2.60;;;21.20;99.90;;;;;;5093424;28;20055;-64
2023/07/02 07:25:42;;;;;;;5.18;2.50;;;21.20;99.90;;;;;;5093057;28;20043;-64
2023/07/02 07:28:11;;;;;;;4.60;2.45;;;21.30;99.90;;;;;;5093179;28;20028;-62
2023/07/02 07:30:37;;;;;;;7.10;3.20;;;21.30;99.90;;;;;;5093136;28;20054;-64
2023/07/02 07:33:03;;;;;;;7.63;2.97;;;21.30;99.90;;;;;;5091726;28;20032;-64
2023/07/02 07:35:28;;;;;;;6.05;2.75;;;21.40;99.90;;;;;;5093159;28;20482;-64
2023/07/02 07:37:54;;;;;;;5.35;2.70;;;21.30;99.90;;;;;;5092987;28;20024;-64
2023/07/02 07:40:20;;;;;;;7.68;3.03;;;21.20;99.90;;;;;;5092912;28;20020;-63
2023/07/02 07:42:45;;;;;;;5.82;2.95;;;21.20;99.90;;;;;;5093044;28;20032;-64
2023/07/02 07:45:11;;;;;;;4.32;2.78;;;21.10;99.90;;;;;;5092846;28;20059;-63
2023/07/02 07:47:38;;;;;;;5.00;2.85;;;21.00;99.90;;;;;;5093112;28;20035;-63
2023/07/02 07:50:09;;;;;;;7.32;3.15;;;21.00;99.90;;;;;;5092241;28;20032;-64
2023/07/02 07:52:38;;;;;;;5.00;2.70;;;21.00;99.90;;;;;;5092713;28;20024;-64
2023/07/02 07:55:05;;;;;;;5.95;3.00;;;21.00;99.90;;;;;;5091688;28;20058;-64
2023/07/02 07:57:31;;;;;;;6.00;2.72;;;21.00;99.90;;;;;;5093391;28;20072;-64
2023/07/02 07:59:56;;;;;;;5.25;2.60;;;21.10;99.90;;;;;;5092507;28;20110;-64
2023/07/02 08:02:23;;;;;;;6.13;3.28;;;21.10;99.90;;;;;;5092332;28;20032;-64
2023/07/02 08:04:49;;;;;;;8.63;3.05;;;21.00;99.90;;;;;;5091944;28;20501;-64
2023/07/02 08:07:15;;;;;;;8.18;3.20;;;21.10;99.90;;;;;;5092262;28;20448;-63
2023/07/02 08:09:41;;;;;;;8.30;2.90;;;21.10;99.90;;;;;;5092684;28;20517;-62
2023/07/02 08:12:07;;;;;;;5.13;2.97;;;21.20;99.90;;;;;;5092235;28;20025;-62
2023/07/02 08:14:35;;;;;;;7.20;3.10;;;21.20;99.90;;;;;;5092313;28;20504;-62
2023/07/02 08:17:00;;;;;;;7.18;3.42;;;21.20;99.90;;;;;;5092098;28;20103;-62
2023/07/02 08:19:26;;;;;;;6.63;3.30;;;21.10;99.90;;;;;;5091839;28;20458;-62
2023/07/02 08:21:52;;;;;;;7.10;3.15;;;21.30;99.90;;;;;;5092164;28;20552;-63
2023/07/02 08:24:18;;;;;;;7.78;3.30;;;21.50;99.90;;;;;;5092068;28;20126;-62
2023/07/02 08:26:44;;;;;;;5.38;3.10;;;21.60;99.90;;;;;;5092222;28;20050;-61
2023/07/02 08:29:10;;;;;;;7.07;3.47;;;21.70;99.90;;;;;;5091967;28;20040;-63
2023/07/02 08:31:36;;;;;;;6.82;3.47;;;21.80;99.90;;;;;;5091870;28;20028;-62
2023/07/02 08:34:02;;;;;;;7.35;3.63;;;21.90;99.90;;;;;;5091430;28;20043;-62
2023/07/02 08:36:28;;;;;;;7.03;3.83;;;22.00;99.90;;;;;;5092122;28;20032;-62
2023/07/02 08:38:54;;;;;;;9.65;3.97;;;21.90;99.90;;;;;;5091800;28;20390;-60
2023/07/02 08:41:21;;;;;;;9.73;4.93;;;21.90;99.90;;;;;;5091706;28;20076;-60
2023/07/02 08:43:48;;;;;;;6.07;4.43;;;22.00;99.90;;;;;;5091654;28;20032;-60
2023/07/02 08:46:16;;;;;;;7.28;4.47;;;22.00;99.90;;;;;;5091438;28;20031;-61
2023/07/02 08:48:42;;;;;;;7.72;4.43;;;22.10;99.90;;;;;;5091495;28;20024;-60
2023/07/02 08:51:07;;;;;;;11.13;4.30;;;22.00;99.90;;;;;;5091369;28;20028;-61
2023/07/02 08:53:33;;;;;;;8.70;4.95;;;22.00;99.90;;;;;;5091596;28;20020;-62
2023/07/02 08:56:00;;;;;;;9.40;4.85;;;22.00;99.90;;;;;;5091225;28;20051;-61
2023/07/02 08:58:26;;;;;;;7.53;4.57;;;21.90;99.90;;;;;;5091656;28;20024;-60
2023/07/02 09:01:09;;;;;;;6.35;4.40;;;21.70;99.90;;;;;;5091384;28;20758;-61
2023/07/02 09:03:37;;;;;;;9.20;4.70;;;21.60;99.90;;;;;;5090985;28;20036;-61
2023/07/02 09:06:03;;;;;;;7.88;5.07;;;21.50;99.90;;;;;;5091082;28;20024;-61
2023/07/02 09:08:29;;;;;;;8.48;4.97;;;21.50;99.90;;;;;;5091346;28;20028;-60
2023/07/02 09:11:12;;;;;;;7.07;4.28;;;21.40;99.90;;;;;;5091338;28;20024;-60
2023/07/02 09:14:00;;;;;;;7.87;4.57;;;21.40;99.90;;;;;;5091067;28;20034;-60
2023/07/02 09:16:28;;;;;;;8.10;4.97;;;21.50;99.90;;;;;;5090928;28;20353;-61
2023/07/02 09:19:04;;;;;;;8.65;4.80;;;21.50;99.90;;;;;;5091178;28;20085;-60
2023/07/02 09:21:46;;;;;;;7.50;4.93;;;21.50;99.90;;;;;;5091300;28;20043;-61
2023/07/02 09:24:12;;;;;;;7.45;4.80;;;21.50;99.90;;;;;;5091336;28;20056;-61
2023/07/02 09:26:41;;;;;;;8.13;4.57;;;21.40;99.90;;;;;;5091138;28;20111;-61
2023/07/02 09:29:06;;;;;;;9.43;4.90;;;21.40;99.90;;;;;;5091054;28;20502;-61
2023/07/02 09:31:43;;;;;;;8.10;5.15;;;21.40;99.90;;;;;;5123874;28;20032;-62
2023/07/02 09:34:09;;;;;;;11.05;5.35;;;21.40;99.90;;;;;;5091186;28;20031;-61
2023/07/02 09:36:37;;;;;;;14.70;6.05;;;21.40;99.90;;;;;;5091057;28;20028;-62
2023/07/02 09:39:04;;;;;;;11.00;5.40;;;21.60;99.90;;;;;;5090913;28;20545;-62
2023/07/02 09:41:30;;;;;;;9.65;5.60;;;21.70;99.90;;;;;;5091096;28;20032;-61
2023/07/02 09:43:56;;;;;;;9.88;5.32;;;22.00;99.90;;;;;;5090879;28;20032;-62
2023/07/02 09:46:22;;;;;;;8.90;5.43;;;22.00;99.90;;;;;;5090699;28;20479;-62
2023/07/02 09:48:48;;;;;;;8.85;4.90;;;22.30;99.90;;;;;;5089527;28;20086;-61
2023/07/02 09:51:14;;;;;;;11.63;5.40;;;22.20;99.90;;;;;;5091002;28;20035;-61
2023/07/02 09:53:40;;;;;;;10.05;5.40;;;22.20;99.90;;;;;;5123799;28;20032;-62
2023/07/02 09:56:08;;;;;;;8.85;5.25;;;22.30;99.90;;;;;;5090884;28;20059;-61
2023/07/02 09:58:34;;;;;;;11.75;5.43;;;22.40;99.90;;;;;;5090761;28;20032;-62
2023/07/02 10:00:59;;;;;;;9.48;5.32;;;22.30;99.90;;;;;;5090408;28;20156;-65
2023/07/02 10:03:32;;;;;;;9.38;5.22;;;22.30;99.90;;;;;;5091133;28;20035;-62
2023/07/02 10:06:07;;;;;;;7.43;5.00;;;22.40;99.90;;;;;;5090862;28;20028;-65
2023/07/02 10:08:33;;;;;;;9.45;5.20;;;22.50;99.90;;;;;;5090859;28;20375;-65
2023/07/02 10:11:09;;;;;;;7.28;5.25;;;22.50;99.90;;;;;;5090778;28;20494;-64
2023/07/02 10:13:34;;;;;;;8.82;6.10;;;22.60;99.90;;;;;;5090774;28;20072;-63
2023/07/02 10:16:07;;;;;;;7.53;6.03;;;22.80;99.90;;;;;;5090323;28;20056;-62
2023/07/02 10:18:34;;;;;;;11.52;6.28;;;22.80;99.90;;;;;;5092598;28;20512;-61
2023/07/02 10:21:00;;;;;;;10.18;6.40;;;22.90;99.90;;;;;;5094708;28;20035;-62
2023/07/02 10:23:35;;;;;;;8.73;6.47;;;23.00;99.90;;;;;;5094256;28;20131;-60
2023/07/02 10:26:18;;;;;;;10.32;7.05;;;22.80;99.90;;;;;;5094087;28;20491;-62
2023/07/02 10:29:05;;;;;;;9.15;6.93;;;22.90;99.90;;;;;;5094333;28;20032;-62
2023/07/02 10:31:31;;;;;;;8.93;6.32;;;22.70;99.90;;;;;;5093094;28;20550;-62
2023/07/02 10:33:57;;;;;;;9.15;6.80;;;22.70;99.90;;;;;;5094281;28;20099;-60
2023/07/02 10:36:25;;;;;;;10.73;7.00;;;22.60;99.90;;;;;;5094490;28;20085;-62
2023/07/02 10:38:52;;;;;;;12.00;7.13;;;22.60;99.90;;;;;;5094019;28;20047;-61
2023/07/02 10:41:28;;;;;;;8.98;6.82;;;22.50;99.90;;;;;;5093918;28;20032;-62
2023/07/02 10:44:04;;;;;;;8.68;7.28;;;22.40;99.90;;;;;;5093346;28;20032;-62
2023/07/02 10:46:30;;;;;;;10.73;7.15;;;22.40;99.90;;;;;;5094245;28;20035;-65
2023/07/02 10:48:56;;;;;;;11.13;7.47;;;22.50;99.90;;;;;;5093865;28;20028;-65
2023/07/02 10:51:23;;;;;;;11.68;7.63;;;22.50;99.90;;;;;;5093848;28;20028;-64
2023/07/02 10:54:04;;;;;;;8.85;7.00;;;22.60;99.90;;;;;;5093945;28;20063;-64
2023/07/02 10:56:31;;;;;;;11.95;8.27;;;22.50;99.90;;;;;;5093728;28;20024;-65
2023/07/02 10:58:57;;;;;;;11.48;9.32;;;22.50;99.90;;;;;;5092539;28;20398;-64
2023/07/02 11:01:27;;;;;;;13.15;9.85;;;22.60;99.90;;;;;;5093752;28;20024;-64
2023/07/02 11:04:04;;;;;;;12.10;10.02;;;22.60;99.90;;;;;;5093533;28;20181;-65
2023/07/02 11:06:32;;;;;;;10.65;9.55;;;22.60;99.90;;;;;;5093328;28;20031;-63
2023/07/02 11:08:58;;;;;;;10.48;9.38;;;22.70;99.90;;;;;;5093726;28;20032;-64
2023/07/02 11:11:24;;;;;;;10.50;9.50;;;23.00;99.90;;;;;;5093357;28;20028;-61
2023/07/02 11:13:52;;;;;;;10.68;9.40;;;23.20;99.90;;;;;;5093251;28;20032;-60
2023/07/02 11:16:25;;;;;;;10.57;8.90;;;23.40;99.90;;;;;;5093223;28;20032;-61
2023/07/02 11:18:53;;;;;;;9.73;8.50;;;23.40;99.90;;;;;;5093247;28;20028;-62
2023/07/02 11:21:19;;;;;;;10.00;8.80;;;23.30;99.90;;;;;;5093100;28;20024;-62
2023/07/02 11:23:44;;;;;;;11.20;9.30;;;23.50;99.90;;;;;;5093033;28;20071;-62
2023/07/02 11:26:10;;;;;;;9.48;8.48;;;23.70;99.90;;;;;;5091726;28;20115;-60
2023/07/02 11:28:36;;;;;;;9.02;7.60;;;23.60;99.90;;;;;;5092325;28;20032;-62
2023/07/02 11:31:03;;;;;;;8.98;7.07;;;23.60;99.90;;;;;;5093161;28;20017;-62
2023/07/02 11:33:39;;;;;;;9.95;7.15;;;23.80;99.90;;;;;;5092976;28;20055;-62
2023/07/02 11:36:06;;;;;;;8.05;7.22;;;23.80;99.90;;;;;;5092905;28;20027;-61
2023/07/02 11:38:34;;;;;;;7.82;6.97;;;23.80;99.90;;;;;;5092804;28;20115;-62
2023/07/02 11:40:59;;;;;;;9.27;6.03;;;23.90;99.90;;;;;;5091512;28;20016;-62
2023/07/02 11:43:26;;;;;;;9.50;6.50;;;23.90;99.90;;;;;;5092765;28;20494;-62
2023/07/02 11:45:52;;;;;;;7.70;6.10;;;23.80;99.90;;;;;;5092858;28;20494;-61
2023/07/02 11:48:17;;;;;;;8.43;6.30;;;23.90;99.90;;;;;;5092971;28;20115;-60
2023/07/02 11:50:43;;;;;;;8.05;6.68;;;23.70;99.90;;;;;;5092996;28;20035;-61
2023/07/02 11:53:09;;;;;;;9.23;6.72;;;23.50;99.90;;;;;;5092379;28;20073;-61
2023/07/02 11:55:36;;;;;;;8.68;6.50;;;23.50;99.90;;;;;;5092263;28;20027;-61
2023/07/02 11:58:02;;;;;;;8.95;6.65;;;23.70;99.90;;;;;;5092426;28;20371;-63
2023/07/02 12:00:27;;;;;;;7.50;6.00;;;23.80;99.90;;;;;;5092927;28;20089;-63
2023/07/02 12:02:53;;;;;;;9.00;6.10;;;23.70;99.90;;;;;;5092154;28;20490;-63
2023/07/02 12:05:19;;;;;;;8.00;6.28;;;23.80;99.90;;;;;;5092181;28;20031;-62
2023/07/02 12:07:44;;;;;;;9.13;8.02;;;23.60;99.90;;;;;;5092533;28;20020;-62
2023/07/02 12:10:10;;;;;;;8.77;7.97;;;23.70;99.90;;;;;;5092368;28;20100;-62
2023/07/02 12:12:36;;;;;;;8.85;7.00;;;23.80;99.90;;;;;;5092214;28;20020;-60
2023/07/02 12:15:02;;;;;;;9.70;7.03;;;23.70;99.90;;;;;;5092112;28;20027;-61
2023/07/02 12:17:27;;;;;;;8.35;6.30;;;23.70;99.90;;;;;;5092247;28;20609;-62
2023/07/02 12:19:53;;;;;;;11.02;7.32;;;23.80;99.90;;;;;;5092204;28;20024;-62
2023/07/02 12:22:21;;;;;;;9.43;6.63;;;23.80;99.90;;;;;;5091751;28;20111;-62
2023/07/02 12:24:48;;;;;;;9.55;6.32;;;23.80;99.90;;;;;;5091496;28;20062;-62
2023/07/02 12:27:14;;;;;;;11.77;7.75;;;23.80;99.90;;;;;;5091908;28;20016;-62
2023/07/02 12:29:39;;;;;;;9.52;7.47;;;24.00;99.90;;;;;;5092266;28;20020;-63
2023/07/02 12:32:06;;;;;;;8.02;7.03;;;24.30;99.90;;;;;;5091872;28;20051;-62
2023/07/02 12:34:32;;;;;;;8.95;7.25;;;24.50;99.90;;;;;;5091814;28;20028;-62
2023/07/02 12:36:57;;;;;;;7.97;7.18;;;24.60;99.90;;;;;;5091615;28;20028;-62
2023/07/02 12:39:23;;;;;;;8.75;7.47;;;24.60;99.90;;;;;;5091392;28;20043;-62
2023/07/02 12:41:49;;;;;;;9.05;7.55;;;24.60;99.90;;;;;;5091237;28;20027;-63
2023/07/02 12:44:14;;;;;;;9.13;7.68;;;24.60;99.90;;;;;;5091733;28;20048;-63